createdAt,value
2023-05-13T00:00:46.740Z,6.65
2023-05-13T00:03:14.941Z,7.35
2023-05-13T00:05:43.145Z,7.28
2023-05-13T00:08:11.981Z,7.32
2023-05-13T00:10:40.091Z,8.00
2023-05-13T00:13:09.595Z,6.50
2023-05-13T00:15:37.659Z,6.53
2023-05-13T00:18:05.862Z,6.80
2023-05-13T00:20:34.050Z,5.68
2023-05-13T00:23:03.278Z,6.20
2023-05-13T00:25:31.408Z,6.63
2023-05-13T00:27:59.571Z,6.57
2023-05-13T00:30:29.052Z,6.57
2023-05-13T00:32:57.188Z,6.65
2023-05-13T00:35:25.320Z,6.43
2023-05-13T00:37:53.693Z,6.53
2023-05-13T00:40:23.694Z,6.72
2023-05-13T00:42:52.029Z,6.95
2023-05-13T00:45:21.040Z,7.40
2023-05-13T00:47:50.801Z,7.95
2023-05-13T00:50:19.222Z,7.60
2023-05-13T00:52:48.034Z,7.43
2023-05-13T00:55:16.149Z,7.07
2023-05-13T00:57:44.312Z,6.57
2023-05-13T01:00:13.364Z,6.90
2023-05-13T01:02:46.514Z,6.93
2023-05-13T01:05:23.903Z,8.13
2023-05-13T01:08:00.421Z,7.72
2023-05-13T01:10:36.022Z,8.00
2023-05-13T01:13:08.921Z,7.57
2023-05-13T01:15:42.068Z,7.35
2023-05-13T01:18:12.772Z,6.70
2023-05-13T01:20:43.876Z,7.88
2023-05-13T01:23:14.042Z,7.25
2023-05-13T01:25:42.364Z,7.65
2023-05-13T01:28:11.046Z,8.13
2023-05-13T01:30:39.205Z,7.70
2023-05-13T01:33:07.477Z,8.63
2023-05-13T01:35:35.969Z,7.78
2023-05-13T01:38:05.413Z,8.38
2023-05-13T01:40:35.631Z,8.60
2023-05-13T01:43:04.049Z,7.53
2023-05-13T01:45:33.216Z,7.60
2023-05-13T01:48:01.492Z,7.90
2023-05-13T01:50:29.671Z,7.68
2023-05-13T01:52:58.376Z,7.75
2023-05-13T01:55:27.213Z,6.97
2023-05-13T01:57:56.834Z,7.05
2023-05-13T02:00:25.086Z,7.85
2023-05-13T02:02:53.277Z,7.68
2023-05-13T02:05:21.559Z,8.43
2023-05-13T02:07:49.662Z,8.70
2023-05-13T02:10:17.918Z,8.93
2023-05-13T02:12:46.118Z,9.30
2023-05-13T02:15:15.731Z,10.13
2023-05-13T02:17:43.914Z,10.07
2023-05-13T02:20:13.490Z,10.00
2023-05-13T02:22:41.664Z,9.77
2023-05-13T02:25:10.672Z,10.50
2023-05-13T02:27:38.824Z,10.18
2023-05-13T02:30:08.217Z,10.18
2023-05-13T02:32:37.874Z,10.48
2023-05-13T02:35:06.800Z,9.35
2023-05-13T02:37:34.922Z,9.63
2023-05-13T02:40:03.339Z,9.07
2023-05-13T02:42:31.441Z,8.68
2023-05-13T02:45:00.026Z,9.70
2023-05-13T02:47:28.392Z,9.73
2023-05-13T02:49:58.147Z,9.07
2023-05-13T02:52:26.523Z,8.73
2023-05-13T02:54:54.667Z,8.32
2023-05-13T02:57:22.802Z,9.40
2023-05-13T02:59:50.942Z,9.45
2023-05-13T03:02:19.135Z,9.13
2023-05-13T03:04:47.439Z,10.90
2023-05-13T03:07:16.953Z,9.05
2023-05-13T03:09:45.063Z,9.75
2023-05-13T03:12:13.165Z,10.57
2023-05-13T03:14:41.480Z,9.68
2023-05-13T03:17:09.741Z,10.05
2023-05-13T03:19:39.272Z,10.80
2023-05-13T03:22:07.642Z,10.15
2023-05-13T03:24:37.173Z,10.35
2023-05-13T03:27:05.552Z,10.77
2023-05-13T03:29:33.687Z,10.23
2023-05-13T03:32:01.782Z,9.50
2023-05-13T03:34:29.884Z,10.85
2023-05-13T03:36:57.990Z,10.70
2023-05-13T03:39:26.543Z,11.43
2023-05-13T03:41:56.042Z,11.27
2023-05-13T03:44:24.202Z,10.95
2023-05-13T03:46:52.392Z,10.57
2023-05-13T03:49:20.507Z,11.23
2023-05-13T03:51:48.650Z,11.82
2023-05-13T03:54:16.776Z,10.18
2023-05-13T03:56:44.886Z,9.93
2023-05-13T03:59:14.350Z,9.27
2023-05-13T04:01:42.474Z,9.98
2023-05-13T04:04:10.592Z,9.82
2023-05-13T04:06:38.696Z,9.18
2023-05-13T04:09:06.822Z,9.85
2023-05-13T04:11:34.981Z,10.05
2023-05-13T04:14:03.121Z,9.18
2023-05-13T04:16:32.642Z,9.45
2023-05-13T04:19:00.825Z,10.00
2023-05-13T04:21:29.037Z,9.70
2023-05-13T04:23:57.153Z,10.32
2023-05-13T04:26:25.928Z,10.15
2023-05-13T04:28:54.101Z,10.50
2023-05-13T04:31:22.392Z,10.88
2023-05-13T04:33:51.906Z,10.00
2023-05-13T04:36:20.046Z,9.15
2023-05-13T04:38:48.194Z,10.05
2023-05-13T04:41:16.300Z,8.88
2023-05-13T04:43:44.482Z,9.15
2023-05-13T04:46:12.657Z,8.80
2023-05-13T04:48:40.839Z,8.88
2023-05-13T04:51:10.814Z,7.65
2023-05-13T04:53:39.415Z,8.77
2023-05-13T04:56:08.157Z,8.23
2023-05-13T04:58:36.271Z,8.13
2023-05-13T05:01:04.371Z,9.25
2023-05-13T05:03:32.481Z,8.60
2023-05-13T05:06:01.045Z,9.02
2023-05-13T05:08:30.581Z,7.97
2023-05-13T05:10:59.468Z,8.75
2023-05-13T05:13:27.664Z,8.10
2023-05-13T05:15:55.888Z,7.97
2023-05-13T05:18:24.034Z,8.88
2023-05-13T05:20:52.223Z,8.50
2023-05-13T05:23:20.319Z,8.48
2023-05-13T05:25:53.211Z,8.05
2023-05-13T05:28:28.834Z,8.80
2023-05-13T05:30:57.651Z,8.63
2023-05-13T05:33:25.823Z,7.63
2023-05-13T05:35:53.935Z,7.82
2023-05-13T05:38:25.197Z,8.45
2023-05-13T05:40:54.870Z,8.23
2023-05-13T05:43:23.007Z,6.93
2023-05-13T05:45:51.140Z,7.72
2023-05-13T05:48:19.280Z,6.70
2023-05-13T05:50:47.450Z,7.55
2023-05-13T05:53:15.632Z,7.90
2023-05-13T05:55:43.725Z,7.35
2023-05-13T05:58:16.561Z,5.78
2023-05-13T06:00:44.710Z,6.07
2023-05-13T06:03:12.958Z,5.95
2023-05-13T06:05:41.392Z,7.13
2023-05-13T06:08:09.512Z,6.57
2023-05-13T06:10:38.575Z,6.70
2023-05-13T06:13:06.816Z,7.10
2023-05-13T06:15:36.591Z,7.45
2023-05-13T06:18:05.656Z,7.57
2023-05-13T06:20:34.044Z,7.13
2023-05-13T06:23:02.129Z,6.93
2023-05-13T06:25:30.226Z,6.97
2023-05-13T06:27:59.000Z,7.30
2023-05-13T06:30:28.017Z,7.20
2023-05-13T06:33:02.089Z,6.47
2023-05-13T06:35:30.762Z,6.97
2023-05-13T06:37:58.979Z,6.95
2023-05-13T06:40:27.182Z,6.93
2023-05-13T06:42:55.384Z,7.07
2023-05-13T06:45:25.931Z,6.50
2023-05-13T06:47:54.586Z,7.78
2023-05-13T06:50:24.431Z,6.18
2023-05-13T06:52:52.663Z,6.60
2023-05-13T06:55:21.701Z,6.25
2023-05-13T06:57:49.967Z,6.18
2023-05-13T07:00:19.202Z,7.22
2023-05-13T07:02:47.568Z,6.22
2023-05-13T07:05:15.844Z,6.40
2023-05-13T07:07:45.761Z,5.80
2023-05-13T07:10:13.916Z,6.30
2023-05-13T07:12:42.077Z,6.30
2023-05-13T07:15:10.877Z,6.35
2023-05-13T07:17:39.102Z,5.28
2023-05-13T07:20:08.732Z,5.85
2023-05-13T07:22:37.128Z,6.28
2023-05-13T07:25:07.555Z,5.72
2023-05-13T07:27:35.730Z,5.47
2023-05-13T07:30:03.868Z,6.53
2023-05-13T07:32:32.035Z,5.53
2023-05-13T07:35:00.173Z,5.90
2023-05-13T07:37:28.292Z,5.97
2023-05-13T07:39:56.435Z,6.40
2023-05-13T07:42:27.346Z,5.53
2023-05-13T07:44:55.724Z,5.80
2023-05-13T07:47:23.986Z,5.10
2023-05-13T07:49:52.250Z,4.70
2023-05-13T07:52:20.401Z,5.20
2023-05-13T07:54:48.507Z,5.45
2023-05-13T07:57:16.670Z,5.70
2023-05-13T07:59:46.149Z,5.20
2023-05-13T08:02:14.325Z,5.53
2023-05-13T08:04:42.567Z,5.65
2023-05-13T08:07:11.408Z,4.97
2023-05-13T08:09:39.813Z,5.50
2023-05-13T08:12:08.522Z,5.20
2023-05-13T08:14:37.418Z,4.82
2023-05-13T08:17:08.172Z,5.10
2023-05-13T08:19:37.219Z,4.90
2023-05-13T08:22:05.941Z,5.00
2023-05-13T08:24:34.089Z,4.97
2023-05-13T08:27:02.753Z,4.85
2023-05-13T08:29:30.911Z,4.82
2023-05-13T08:31:59.208Z,4.45
2023-05-13T08:34:28.746Z,4.72
2023-05-13T08:36:56.880Z,4.50
2023-05-13T08:39:24.988Z,3.92
2023-05-13T08:41:53.996Z,3.95
2023-05-13T08:44:28.588Z,3.65
2023-05-13T08:47:03.755Z,4.50
2023-05-13T08:49:34.024Z,5.00
2023-05-13T08:52:02.206Z,4.90
2023-05-13T08:54:31.241Z,3.90
2023-05-13T08:56:59.356Z,4.80
2023-05-13T08:59:27.467Z,4.90
2023-05-13T09:01:56.485Z,4.97
2023-05-13T09:04:25.588Z,4.75
2023-05-13T09:06:55.339Z,4.85
2023-05-13T09:09:23.659Z,5.18
2023-05-13T09:11:51.769Z,5.07
2023-05-13T09:14:20.999Z,4.47
2023-05-13T09:16:49.633Z,4.65
2023-05-13T09:19:17.906Z,4.95
2023-05-13T09:21:46.081Z,4.80
2023-05-13T09:24:18.820Z,4.32
2023-05-13T09:26:47.421Z,4.68
2023-05-13T09:29:20.502Z,4.28
2023-05-13T09:31:50.385Z,4.22
2023-05-13T09:34:27.164Z,4.68
2023-05-13T09:37:00.254Z,5.20
2023-05-13T09:39:31.661Z,4.78
2023-05-13T09:42:04.889Z,4.88
2023-05-13T09:44:34.053Z,4.43
2023-05-13T09:47:03.545Z,3.60
2023-05-13T09:49:33.044Z,3.85
2023-05-13T09:52:01.231Z,3.55
2023-05-13T09:54:36.118Z,3.50
2023-05-13T09:57:04.893Z,4.22
2023-05-13T09:59:33.811Z,5.07
2023-05-13T10:02:02.592Z,4.18
2023-05-13T10:04:30.777Z,4.70
2023-05-13T10:06:59.925Z,4.13
2023-05-13T10:09:30.078Z,4.25
2023-05-13T10:11:59.150Z,4.72
2023-05-13T10:14:28.115Z,4.43
2023-05-13T10:16:56.414Z,4.50
2023-05-13T10:19:26.016Z,4.40
2023-05-13T10:21:54.328Z,3.72
2023-05-13T10:24:22.757Z,4.32
2023-05-13T10:26:53.784Z,3.92
2023-05-13T10:29:24.039Z,4.05
2023-05-13T10:31:52.494Z,4.60
2023-05-13T10:34:20.791Z,4.57
2023-05-13T10:37:05.164Z,4.38
2023-05-13T10:39:55.211Z,4.35
2023-05-13T10:42:39.202Z,5.05
2023-05-13T10:45:08.875Z,4.45
2023-05-13T10:47:37.854Z,4.70
2023-05-13T10:50:24.176Z,4.47
2023-05-13T10:52:56.079Z,3.63
2023-05-13T10:55:24.267Z,5.03
2023-05-13T10:58:13.147Z,4.85
2023-05-13T11:00:42.712Z,4.60
2023-05-13T11:03:15.601Z,3.83
2023-05-13T11:08:13.286Z,3.80
2023-05-13T11:10:42.283Z,4.55
2023-05-13T11:13:24.745Z,3.97
2023-05-13T11:15:54.281Z,4.82
2023-05-13T11:18:30.389Z,4.70
2023-05-13T11:21:05.255Z,5.00
2023-05-13T11:23:35.828Z,3.35
2023-05-13T11:26:16.950Z,3.63
2023-05-13T11:28:57.134Z,3.90
2023-05-13T11:31:25.769Z,5.05
2023-05-13T11:34:07.922Z,3.55
2023-05-13T11:36:36.465Z,2.10
2023-05-13T11:39:13.858Z,2.35
2023-05-13T11:41:44.075Z,2.33
2023-05-13T11:44:14.702Z,2.88
2023-05-13T11:46:56.889Z,1.80
2023-05-13T11:49:35.645Z,1.48
2023-05-13T11:52:05.278Z,2.38
2023-05-13T11:54:33.413Z,2.10
2023-05-13T11:57:01.902Z,2.60
2023-05-13T11:59:41.733Z,2.00
2023-05-13T12:02:15.913Z,3.13
2023-05-13T12:04:45.709Z,2.67
2023-05-13T12:07:13.958Z,2.97
2023-05-13T12:09:42.056Z,3.15
2023-05-13T12:12:10.563Z,2.80
2023-05-13T12:14:40.126Z,3.22
2023-05-13T12:17:08.314Z,2.40
2023-05-13T12:19:37.395Z,2.28
2023-05-13T12:22:06.826Z,3.10
2023-05-13T12:24:35.368Z,2.63
2023-05-13T12:27:10.132Z,2.97
2023-05-13T12:29:44.510Z,3.83
2023-05-13T12:32:12.980Z,3.55
2023-05-13T12:34:41.101Z,3.17
2023-05-13T12:37:13.187Z,3.83
2023-05-13T12:39:41.879Z,3.93
2023-05-13T12:42:16.088Z,4.00
2023-05-13T12:44:46.546Z,3.38
2023-05-13T12:47:15.829Z,4.00
2023-05-13T12:49:54.112Z,4.00
2023-05-13T12:52:22.447Z,3.80
2023-05-13T12:54:50.902Z,3.72
2023-05-13T12:57:20.527Z,4.03
2023-05-13T12:59:50.323Z,7.70
2023-05-13T13:02:18.397Z,6.93
2023-05-13T13:04:46.516Z,6.45
2023-05-13T13:07:14.824Z,11.02
2023-05-13T13:09:42.975Z,10.35
2023-05-13T13:12:11.178Z,5.18
2023-05-13T13:14:39.283Z,3.75
2023-05-13T13:17:08.854Z,2.67
2023-05-13T13:19:36.980Z,2.10
2023-05-13T13:22:05.221Z,2.83
2023-05-13T13:24:33.513Z,2.95
2023-05-13T13:27:01.595Z,2.88
2023-05-13T13:29:29.784Z,2.05
2023-05-13T13:31:58.313Z,2.88
2023-05-13T13:34:27.978Z,2.47
2023-05-13T13:36:56.102Z,2.70
2023-05-13T13:39:24.182Z,2.28
2023-05-13T13:41:52.300Z,2.90
2023-05-13T13:44:20.521Z,2.55
2023-05-13T13:46:48.658Z,3.35
2023-05-13T13:49:23.875Z,2.85
2023-05-13T13:51:54.055Z,1.95
2023-05-13T13:54:22.332Z,2.10
2023-05-13T13:56:50.461Z,2.13
2023-05-13T13:59:19.299Z,2.42
2023-05-13T14:01:47.793Z,2.17
2023-05-13T14:04:19.816Z,2.38
2023-05-13T14:06:48.044Z,1.92
2023-05-13T14:09:17.802Z,2.40
2023-05-13T14:11:45.949Z,2.42
2023-05-13T14:14:14.187Z,2.38
2023-05-13T14:16:42.341Z,2.58
2023-05-13T14:19:12.759Z,2.25
2023-05-13T14:21:41.011Z,2.53
2023-05-13T14:24:11.984Z,2.10
2023-05-13T14:26:41.550Z,2.05
2023-05-13T14:29:09.712Z,2.35
2023-05-13T14:31:37.999Z,2.47
2023-05-13T14:34:07.938Z,3.63
2023-05-13T14:36:36.809Z,3.33
2023-05-13T14:39:05.167Z,3.45
2023-05-13T14:41:33.377Z,3.38
2023-05-13T14:44:02.971Z,2.92
2023-05-13T14:46:31.337Z,3.90
2023-05-13T14:48:59.485Z,3.63
2023-05-13T14:51:27.662Z,3.38
2023-05-13T14:53:55.772Z,3.40
2023-05-13T14:56:25.206Z,3.40
2023-05-13T14:58:53.887Z,2.83
2023-05-13T15:01:23.454Z,2.90
2023-05-13T15:03:51.633Z,3.20
2023-05-13T15:06:19.813Z,3.05
2023-05-13T15:08:47.912Z,2.63
2023-05-13T15:11:16.142Z,2.72
2023-05-13T15:13:44.254Z,3.10
2023-05-13T15:16:12.489Z,2.80
2023-05-13T15:18:42.238Z,3.03
2023-05-13T15:21:10.415Z,3.38
2023-05-13T15:23:38.552Z,2.78
2023-05-13T15:26:06.765Z,2.47
2023-05-13T15:28:34.870Z,2.75
2023-05-13T15:31:03.630Z,3.10
2023-05-13T15:33:32.583Z,2.70
2023-05-13T15:36:02.224Z,3.40
2023-05-13T15:38:30.370Z,3.10
2023-05-13T15:40:58.468Z,2.88
2023-05-13T15:43:26.673Z,2.78
2023-05-13T15:45:54.986Z,2.75
2023-05-13T15:48:23.165Z,3.13
2023-05-13T15:50:52.057Z,3.10
2023-05-13T15:53:21.541Z,3.15
2023-05-13T15:55:49.768Z,4.75
2023-05-13T15:58:17.968Z,9.48
2023-05-13T16:00:46.104Z,9.57
2023-05-13T16:03:14.234Z,9.27
2023-05-13T16:05:42.338Z,8.02
2023-05-13T16:08:10.612Z,5.15
2023-05-13T16:10:40.117Z,5.63
2023-05-13T16:13:08.282Z,9.63
2023-05-13T16:15:36.453Z,7.38
2023-05-13T16:18:04.732Z,6.30
2023-05-13T16:20:32.871Z,4.28
2023-05-13T16:23:01.160Z,4.05
2023-05-13T16:25:29.268Z,4.15
2023-05-13T16:27:58.852Z,3.60
2023-05-13T16:30:27.515Z,4.25
2023-05-13T16:32:55.786Z,3.88
2023-05-13T16:35:24.099Z,5.78
2023-05-13T16:37:52.262Z,4.22
2023-05-13T16:40:20.643Z,4.50
2023-05-13T16:42:48.907Z,4.07
2023-05-13T16:45:18.516Z,3.80
2023-05-13T16:47:46.679Z,4.63
2023-05-13T16:50:14.953Z,3.75
2023-05-13T16:52:43.142Z,3.88
2023-05-13T16:55:11.496Z,6.45
2023-05-13T16:57:39.687Z,4.65
2023-05-13T17:00:09.325Z,4.43
2023-05-13T17:02:38.963Z,4.05
2023-05-13T17:05:07.941Z,4.47
2023-05-13T17:07:36.145Z,5.60
2023-05-13T17:10:04.269Z,4.47
2023-05-13T17:12:32.540Z,4.85
2023-05-13T17:15:00.683Z,4.70
2023-05-13T17:17:28.825Z,4.10
2023-05-13T17:19:58.736Z,4.30
2023-05-13T17:22:26.858Z,4.72
2023-05-13T17:24:54.965Z,4.60
2023-05-13T17:27:23.147Z,4.38
2023-05-13T17:29:51.219Z,6.45
2023-05-13T17:32:19.331Z,4.47
2023-05-13T17:34:47.431Z,4.20
2023-05-13T17:37:16.931Z,4.57
2023-05-13T17:39:45.028Z,5.35
2023-05-13T17:42:13.156Z,5.25
2023-05-13T17:44:41.747Z,5.70
2023-05-13T17:47:09.884Z,5.43
2023-05-13T17:49:37.979Z,4.55
2023-05-13T17:52:07.136Z,5.10
2023-05-13T17:54:37.088Z,4.53
2023-05-13T17:57:05.639Z,4.82
2023-05-13T17:59:34.035Z,5.07
2023-05-13T18:02:02.242Z,5.80
2023-05-13T18:04:30.366Z,5.13
2023-05-13T18:06:58.467Z,5.05
2023-05-13T18:09:26.656Z,4.40
2023-05-13T18:11:56.315Z,5.43
2023-05-13T18:14:24.434Z,4.35
2023-05-13T18:16:52.524Z,4.95
2023-05-13T18:19:20.650Z,4.32
2023-05-13T18:21:48.755Z,4.43
2023-05-13T18:24:16.878Z,4.43
2023-05-13T18:26:45.001Z,4.78
2023-05-13T18:29:14.512Z,6.40
2023-05-13T18:31:42.641Z,5.50
2023-05-13T18:34:10.925Z,5.55
2023-05-13T18:36:39.034Z,6.53
2023-05-13T18:39:08.279Z,5.72
2023-05-13T18:41:36.794Z,5.68
2023-05-13T18:44:04.928Z,7.03
2023-05-13T18:46:34.614Z,5.53
2023-05-13T18:49:04.609Z,6.28
2023-05-13T18:51:33.863Z,7.13
2023-05-13T18:54:02.093Z,6.30
2023-05-13T18:56:30.354Z,6.25
2023-05-13T18:58:58.701Z,6.60
2023-05-13T19:01:27.025Z,5.40
2023-05-13T19:03:59.006Z,5.90
2023-05-13T19:06:27.405Z,7.07
2023-05-13T19:08:55.526Z,6.80
2023-05-13T19:11:23.802Z,6.30
2023-05-13T19:13:52.393Z,5.22
2023-05-13T19:16:20.803Z,4.90
2023-05-13T19:18:49.063Z,4.72
2023-05-13T19:21:18.602Z,4.90
2023-05-13T19:23:46.834Z,5.93
2023-05-13T19:26:15.015Z,4.93
2023-05-13T19:28:43.973Z,5.45
2023-05-13T19:31:12.792Z,7.38
2023-05-13T19:33:41.598Z,5.93
2023-05-13T19:36:11.347Z,6.05
2023-05-13T19:38:40.854Z,6.25
2023-05-13T19:41:08.976Z,5.53
2023-05-13T19:43:37.170Z,6.00
2023-05-13T19:46:05.347Z,6.05
2023-05-13T19:48:33.513Z,6.72
2023-05-13T19:51:01.943Z,6.75
2023-05-13T19:53:30.110Z,7.20
2023-05-13T19:55:59.610Z,6.78
2023-05-13T19:58:28.438Z,7.72
2023-05-13T20:00:57.057Z,8.15
2023-05-13T20:03:25.323Z,8.05
2023-05-13T20:05:54.180Z,7.43
2023-05-13T20:08:22.958Z,6.63
2023-05-13T20:10:51.160Z,7.63
2023-05-13T20:13:20.640Z,7.55
2023-05-13T20:15:48.763Z,7.55
2023-05-13T20:18:17.287Z,8.02
2023-05-13T20:20:47.051Z,6.60
2023-05-13T20:23:15.244Z,7.45
2023-05-13T20:25:43.358Z,7.20
2023-05-13T20:28:11.606Z,6.65
2023-05-13T20:30:43.333Z,6.82
2023-05-13T20:33:11.538Z,6.38
2023-05-13T20:35:39.694Z,5.88
2023-05-13T20:38:08.165Z,7.57
2023-05-13T20:40:36.357Z,6.55
2023-05-13T20:43:06.869Z,8.60
2023-05-13T20:45:36.599Z,11.85
2023-05-13T20:48:06.592Z,10.23
2023-05-13T20:50:34.813Z,10.07
2023-05-13T20:53:03.076Z,9.25
2023-05-13T20:55:31.369Z,8.52
2023-05-13T20:57:59.567Z,5.82
2023-05-13T21:00:27.660Z,4.90
2023-05-13T21:02:56.037Z,5.03
2023-05-13T21:05:25.776Z,5.03
2023-05-13T21:07:54.104Z,5.40
2023-05-13T21:10:22.523Z,6.43
2023-05-13T21:12:51.280Z,6.60
2023-05-13T21:15:19.477Z,5.80
2023-05-13T21:17:47.617Z,5.43
2023-05-13T21:20:16.292Z,5.20
2023-05-13T21:22:45.769Z,4.93
2023-05-13T21:25:14.115Z,5.90
2023-05-13T21:27:42.195Z,4.65
2023-05-13T21:30:11.196Z,5.30
2023-05-13T21:32:39.291Z,4.82
2023-05-13T21:35:08.695Z,5.15
2023-05-13T21:37:36.892Z,4.97
2023-05-13T21:40:08.198Z,5.07
2023-05-13T21:42:36.899Z,5.53
2023-05-13T21:45:05.435Z,5.78
2023-05-13T21:47:33.797Z,6.53
2023-05-13T21:50:02.035Z,6.03
2023-05-13T21:52:30.227Z,6.85
2023-05-13T21:54:58.390Z,6.88
2023-05-13T21:57:27.964Z,6.50
2023-05-13T21:59:56.085Z,6.50
2023-05-13T22:02:24.345Z,5.45
2023-05-13T22:04:52.617Z,7.28
2023-05-13T22:07:20.775Z,7.05
2023-05-13T22:09:50.475Z,6.50
2023-05-13T22:12:18.729Z,7.03
2023-05-13T22:14:48.248Z,7.43
2023-05-13T22:17:16.607Z,6.43
2023-05-13T22:19:45.013Z,6.85
2023-05-13T22:22:13.222Z,6.95
2023-05-13T22:24:41.350Z,6.78
2023-05-13T22:27:09.983Z,6.75
2023-05-13T22:29:38.062Z,7.18
2023-05-13T22:32:08.334Z,7.00
2023-05-13T22:34:36.532Z,6.55
2023-05-13T22:37:04.710Z,6.95
2023-05-13T22:39:32.883Z,10.27
2023-05-13T22:42:01.077Z,7.70
2023-05-13T22:44:29.232Z,7.65
2023-05-13T22:46:57.362Z,7.55
2023-05-13T22:49:26.933Z,8.18
2023-05-13T22:51:56.330Z,9.13
2023-05-13T22:54:24.451Z,7.47
2023-05-13T22:56:52.570Z,6.90
2023-05-13T22:59:20.730Z,7.35
2023-05-13T23:01:48.878Z,8.05
2023-05-13T23:04:17.091Z,7.07
2023-05-13T23:06:46.649Z,7.18
2023-05-13T23:09:14.794Z,7.82
2023-05-13T23:11:42.931Z,8.05
2023-05-13T23:14:11.072Z,7.93
2023-05-13T23:16:39.334Z,8.95
2023-05-13T23:19:07.573Z,9.20
2023-05-13T23:21:35.742Z,8.50
2023-05-13T23:24:05.422Z,8.65
2023-05-13T23:26:33.789Z,8.63
2023-05-13T23:29:01.907Z,8.10
2023-05-13T23:31:30.076Z,8.18
2023-05-13T23:33:58.187Z,7.65
2023-05-13T23:36:26.352Z,7.93
2023-05-13T23:38:54.822Z,8.77
2023-05-13T23:41:24.312Z,8.43
2023-05-13T23:43:52.439Z,8.77
2023-05-13T23:46:21.168Z,8.40
2023-05-13T23:48:49.289Z,9.15
2023-05-13T23:51:17.396Z,8.30
2023-05-13T23:53:45.640Z,8.52
2023-05-13T23:56:13.771Z,8.35
2023-05-13T23:58:44.932Z,8.65
